createdAt,value
2022-12-14T00:00:51.237Z,50.03
2022-12-14T00:02:52.787Z,45.90
2022-12-14T00:04:54.450Z,45.40
2022-12-14T00:06:55.887Z,49.17
2022-12-14T00:09:02.200Z,50.22
2022-12-14T00:11:03.687Z,45.78
2022-12-14T00:13:06.844Z,48.05
2022-12-14T00:15:08.899Z,42.75
2022-12-14T00:17:10.402Z,44.53
2022-12-14T00:19:12.234Z,48.58
2022-12-14T00:21:14.275Z,49.80
2022-12-14T00:23:15.772Z,47.20
2022-12-14T00:25:17.339Z,48.50
2022-12-14T00:27:18.771Z,43.08
2022-12-14T00:29:20.197Z,50.38
2022-12-14T00:31:23.192Z,46.58
2022-12-14T00:33:24.737Z,35.88
2022-12-14T00:35:26.168Z,49.50
2022-12-14T00:37:27.615Z,44.10
2022-12-14T00:39:29.033Z,43.20
2022-12-14T00:41:30.471Z,46.13
2022-12-14T00:43:31.985Z,38.97
2022-12-14T00:45:33.428Z,41.63
2022-12-14T00:47:40.376Z,47.08
2022-12-14T00:49:42.216Z,42.17
2022-12-14T00:51:43.657Z,43.22
2022-12-14T00:53:45.097Z,44.13
2022-12-14T00:55:49.553Z,41.22
2022-12-14T00:57:51.178Z,44.58
2022-12-14T00:59:52.601Z,42.67
2022-12-14T01:01:54.176Z,44.90
2022-12-14T01:04:15.886Z,46.83
2022-12-14T01:06:20.151Z,40.65
2022-12-14T01:08:21.821Z,37.00
2022-12-14T01:10:23.440Z,43.08
2022-12-14T01:12:24.998Z,41.47
2022-12-14T01:14:26.434Z,42.50
2022-12-14T01:16:28.169Z,44.60
2022-12-14T01:18:29.643Z,42.08
2022-12-14T01:20:31.149Z,39.95
2022-12-14T01:22:32.587Z,39.90
2022-12-14T01:24:34.005Z,42.45
2022-12-14T01:26:40.212Z,37.55
2022-12-14T01:28:42.284Z,34.33
2022-12-14T01:30:43.747Z,37.03
2022-12-14T01:32:46.098Z,39.78
2022-12-14T01:34:51.176Z,36.70
2022-12-14T01:36:52.617Z,38.90
2022-12-14T01:38:56.613Z,29.80
2022-12-14T01:40:58.773Z,36.92
2022-12-14T01:43:00.258Z,36.33
2022-12-14T01:45:01.947Z,39.25
2022-12-14T01:47:24.463Z,34.53
2022-12-14T01:49:32.082Z,33.40
2022-12-14T01:51:36.340Z,35.88
2022-12-14T01:53:37.892Z,42.33
2022-12-14T01:55:42.958Z,36.65
2022-12-14T01:58:07.050Z,34.45
2022-12-14T02:00:10.802Z,39.80
2022-12-14T02:02:14.794Z,41.17
2022-12-14T02:04:19.058Z,36.03
2022-12-14T02:06:33.852Z,37.17
2022-12-14T02:08:36.210Z,34.08
2022-12-14T02:10:38.017Z,33.55
2022-12-14T02:12:44.182Z,36.35
2022-12-14T02:14:47.090Z,40.72
2022-12-14T02:16:55.097Z,30.98
2022-12-14T02:18:56.576Z,37.05
2022-12-14T02:21:36.768Z,37.88
2022-12-14T02:23:50.063Z,38.53
2022-12-14T02:26:34.074Z,34.00
2022-12-14T02:29:12.782Z,38.35
2022-12-14T02:31:33.300Z,30.95
2022-12-14T02:33:52.682Z,38.03
2022-12-14T02:36:15.887Z,43.03
2022-12-14T02:38:42.702Z,35.92
2022-12-14T02:41:07.306Z,45.20
2022-12-14T02:43:27.790Z,38.22
2022-12-14T02:45:53.029Z,47.70
2022-12-14T02:48:06.986Z,43.25
2022-12-14T02:50:24.037Z,45.30
2022-12-14T02:52:28.561Z,46.20
2022-12-14T02:54:44.289Z,48.22
2022-12-14T02:56:57.779Z,43.35
2022-12-14T02:59:02.105Z,42.97
2022-12-14T03:01:04.298Z,42.78
2022-12-14T03:03:06.728Z,44.35
2022-12-14T03:05:09.130Z,44.72
2022-12-14T03:07:48.872Z,49.28
2022-12-14T03:09:52.173Z,37.35
2022-12-14T03:12:00.871Z,37.90
2022-12-14T03:16:19.780Z,34.22
2022-12-14T03:18:24.880Z,34.08
2022-12-14T03:20:30.983Z,35.80
2022-12-14T03:22:43.588Z,36.30
2022-12-14T03:24:52.494Z,34.72
2022-12-14T03:27:05.080Z,30.80
2022-12-14T03:29:15.491Z,32.05
2022-12-14T03:31:35.838Z,31.88
2022-12-14T03:33:39.879Z,37.35
2022-12-14T03:36:06.565Z,31.92
2022-12-14T03:38:16.996Z,30.90
2022-12-14T03:40:19.552Z,34.03
2022-12-14T03:42:30.944Z,34.08
2022-12-14T03:44:50.007Z,36.05
2022-12-14T03:47:11.746Z,31.70
2022-12-14T03:49:41.091Z,34.95
2022-12-14T03:51:50.009Z,32.55
2022-12-14T03:54:11.210Z,35.35
2022-12-14T03:56:30.587Z,30.60
2022-12-14T03:58:50.013Z,33.90
2022-12-14T04:01:00.730Z,32.88
2022-12-14T04:03:10.086Z,41.58
2022-12-14T04:05:38.067Z,28.05
2022-12-14T04:07:49.057Z,35.70
2022-12-14T04:09:54.165Z,34.67
2022-12-14T04:12:28.244Z,30.20
2022-12-14T04:14:55.733Z,34.30
2022-12-14T04:17:18.980Z,30.45
2022-12-14T04:19:27.131Z,26.75
2022-12-14T04:21:36.618Z,32.35
2022-12-14T04:24:05.407Z,29.27
2022-12-14T04:26:13.001Z,30.88
2022-12-14T04:28:54.111Z,32.72
2022-12-14T04:30:59.758Z,29.13
2022-12-14T04:33:27.304Z,29.13
2022-12-14T04:35:39.762Z,30.65
2022-12-14T04:37:45.064Z,27.15
2022-12-14T04:40:08.538Z,28.35
2022-12-14T04:42:13.973Z,27.10
2022-12-14T04:44:30.627Z,29.05
2022-12-14T04:46:40.374Z,25.15
2022-12-14T04:48:48.735Z,31.33
2022-12-14T04:51:00.229Z,29.15
2022-12-14T04:53:10.964Z,29.27
2022-12-14T04:55:34.366Z,31.27
2022-12-14T04:57:49.640Z,27.95
2022-12-14T04:59:51.644Z,27.33
2022-12-14T05:02:17.130Z,31.70
2022-12-14T05:04:40.118Z,27.30
2022-12-14T05:06:50.699Z,27.27
2022-12-14T05:09:09.698Z,25.58
2022-12-14T05:11:53.137Z,31.52
2022-12-14T05:13:49.560Z,25.13
2022-12-14T05:15:56.341Z,26.92
2022-12-14T05:18:03.051Z,27.52
2022-12-14T05:20:05.677Z,30.30
2022-12-14T05:22:08.222Z,29.90
2022-12-14T05:24:09.711Z,27.20
2022-12-14T05:26:11.154Z,27.80
2022-12-14T05:28:12.987Z,31.38
2022-12-14T05:30:14.778Z,30.60
2022-12-14T05:32:16.306Z,29.60
2022-12-14T05:34:18.125Z,27.48
2022-12-14T05:36:19.879Z,23.92
2022-12-14T05:38:21.356Z,27.35
2022-12-14T05:40:22.783Z,26.48
2022-12-14T05:42:24.318Z,32.47
2022-12-14T05:44:25.741Z,30.63
2022-12-14T05:46:27.302Z,32.28
2022-12-14T05:48:29.897Z,26.67
2022-12-14T05:50:31.723Z,23.42
2022-12-14T05:52:33.155Z,29.67
2022-12-14T05:54:34.577Z,24.83
2022-12-14T05:56:36.110Z,32.55
2022-12-14T05:58:38.433Z,26.70
2022-12-14T06:00:40.105Z,27.92
2022-12-14T06:02:41.597Z,29.83
2022-12-14T06:04:43.153Z,26.25
2022-12-14T06:06:44.731Z,29.27
2022-12-14T06:08:46.749Z,24.58
2022-12-14T06:10:48.266Z,25.45
2022-12-14T06:12:50.037Z,29.77
2022-12-14T06:14:51.520Z,25.58
2022-12-14T06:16:53.056Z,26.20
2022-12-14T06:18:59.811Z,28.77
2022-12-14T06:21:01.340Z,31.98
2022-12-14T06:23:03.001Z,27.63
2022-12-14T06:25:04.689Z,33.45
2022-12-14T06:27:06.500Z,27.05
2022-12-14T06:29:14.054Z,25.50
2022-12-14T06:31:18.853Z,28.13
2022-12-14T06:33:20.446Z,27.92
2022-12-14T06:35:21.871Z,25.30
2022-12-14T06:37:23.323Z,25.92
2022-12-14T06:39:24.795Z,33.17
2022-12-14T06:41:26.233Z,31.23
2022-12-14T06:43:28.100Z,29.52
2022-12-14T06:45:30.205Z,30.80
2022-12-14T06:47:31.623Z,27.92
2022-12-14T06:49:33.135Z,30.60
2022-12-14T06:51:40.759Z,30.63
2022-12-14T06:53:42.182Z,18.23
2022-12-14T06:55:43.716Z,26.63
2022-12-14T06:57:51.613Z,35.03
2022-12-14T06:59:53.051Z,29.60
2022-12-14T07:01:54.562Z,26.88
2022-12-14T07:03:57.964Z,24.25
2022-12-14T07:06:01.393Z,27.17
2022-12-14T07:08:04.046Z,25.42
2022-12-14T07:10:06.998Z,26.85
2022-12-14T07:12:08.434Z,29.30
2022-12-14T07:14:16.251Z,25.90
2022-12-14T07:16:21.164Z,29.15
2022-12-14T07:18:23.178Z,28.55
2022-12-14T07:20:24.627Z,23.75
2022-12-14T07:22:26.093Z,24.42
2022-12-14T07:24:27.538Z,29.13
2022-12-14T07:26:30.070Z,31.08
2022-12-14T07:28:32.354Z,25.50
2022-12-14T07:30:33.806Z,30.27
2022-12-14T07:32:35.252Z,24.20
2022-12-14T07:34:36.710Z,25.20
2022-12-14T07:36:38.205Z,22.65
2022-12-14T07:38:41.363Z,25.85
2022-12-14T07:40:43.422Z,24.48
2022-12-14T07:42:49.349Z,21.35
2022-12-14T07:44:50.847Z,25.63
2022-12-14T07:46:53.382Z,24.05
2022-12-14T07:48:56.494Z,26.88
2022-12-14T07:51:07.235Z,27.23
2022-12-14T07:53:08.650Z,26.55
2022-12-14T07:55:10.097Z,28.98
2022-12-14T07:57:11.532Z,24.52
2022-12-14T07:59:16.072Z,31.67
2022-12-14T08:01:20.604Z,30.92
2022-12-14T08:03:22.122Z,23.77
2022-12-14T08:05:23.567Z,27.35
2022-12-14T08:07:25.131Z,25.55
2022-12-14T08:09:26.690Z,23.90
2022-12-14T08:11:28.903Z,27.70
2022-12-14T08:13:31.222Z,24.98
2022-12-14T08:15:37.456Z,27.33
2022-12-14T08:17:38.892Z,25.33
2022-12-14T08:19:40.323Z,31.77
2022-12-14T08:21:42.120Z,26.20
2022-12-14T08:23:43.550Z,27.50
2022-12-14T08:25:45.008Z,23.55
2022-12-14T08:27:46.487Z,22.73
2022-12-14T08:29:48.023Z,28.55
2022-12-14T08:31:49.542Z,28.70
2022-12-14T08:33:51.834Z,24.85
2022-12-14T08:35:53.281Z,26.70
2022-12-14T08:37:54.750Z,23.42
2022-12-14T08:39:56.183Z,30.30
2022-12-14T08:41:57.652Z,30.77
2022-12-14T08:44:01.292Z,25.65
2022-12-14T08:46:03.721Z,30.75
2022-12-14T08:48:05.333Z,27.08
2022-12-14T08:50:07.087Z,21.63
2022-12-14T08:52:10.551Z,29.58
2022-12-14T08:54:12.059Z,30.30
2022-12-14T08:56:15.815Z,31.58
2022-12-14T08:58:17.289Z,27.65
2022-12-14T09:00:18.944Z,26.27
2022-12-14T09:02:20.646Z,26.42
2022-12-14T09:04:22.440Z,29.98
2022-12-14T09:06:27.748Z,28.20
2022-12-14T09:08:29.177Z,28.95
2022-12-14T09:10:30.794Z,29.38
2022-12-14T09:12:32.337Z,33.22
2022-12-14T09:14:34.455Z,32.20
2022-12-14T09:16:37.602Z,29.55
2022-12-14T09:18:39.463Z,28.45
2022-12-14T09:20:43.282Z,31.00
2022-12-14T09:22:45.850Z,35.20
2022-12-14T09:24:48.011Z,31.17
2022-12-14T09:26:50.515Z,32.70
2022-12-14T09:28:55.856Z,30.80
2022-12-14T09:31:00.081Z,34.53
2022-12-14T09:33:01.510Z,26.77
2022-12-14T09:35:02.982Z,27.15
2022-12-14T09:37:07.368Z,28.85
2022-12-14T09:39:08.894Z,28.52
2022-12-14T09:41:34.577Z,37.08
2022-12-14T09:43:39.015Z,28.67
2022-12-14T09:45:51.098Z,28.05
2022-12-14T09:48:06.586Z,29.50
2022-12-14T09:50:20.410Z,22.23
2022-12-14T09:52:40.669Z,26.58
2022-12-14T09:54:44.393Z,26.52
2022-12-14T09:56:46.065Z,27.80
2022-12-14T09:58:54.557Z,29.80
2022-12-14T10:01:22.497Z,28.60
2022-12-14T10:03:36.933Z,29.02
2022-12-14T10:05:50.506Z,24.27
2022-12-14T10:08:23.964Z,23.95
2022-12-14T10:10:31.637Z,25.38
2022-12-14T10:12:59.112Z,36.73
2022-12-14T10:15:25.032Z,24.60
2022-12-14T10:17:48.243Z,26.92
2022-12-14T10:19:55.533Z,28.52
2022-12-14T10:22:17.938Z,24.08
2022-12-14T10:24:27.389Z,26.73
2022-12-14T10:26:45.752Z,25.75
2022-12-14T10:29:01.708Z,24.45
2022-12-14T10:31:07.997Z,28.17
2022-12-14T10:33:31.636Z,25.10
2022-12-14T10:35:51.803Z,26.80
2022-12-14T10:38:11.364Z,30.00
2022-12-14T10:40:29.196Z,30.05
2022-12-14T10:43:04.010Z,26.33
2022-12-14T10:47:39.729Z,27.95
2022-12-14T10:49:57.368Z,36.75
2022-12-14T10:52:16.902Z,28.93
2022-12-14T10:54:21.065Z,29.27
2022-12-14T10:56:35.187Z,24.90
2022-12-14T10:58:36.689Z,29.15
2022-12-14T11:00:38.486Z,34.67
2022-12-14T11:02:43.367Z,28.77
2022-12-14T11:04:58.424Z,22.35
2022-12-14T11:07:03.125Z,21.70
2022-12-14T11:09:20.519Z,23.38
2022-12-14T11:11:24.797Z,21.25
2022-12-14T11:13:26.339Z,19.25
2022-12-14T11:15:42.359Z,17.92
2022-12-14T11:17:44.333Z,17.80
2022-12-14T11:20:05.096Z,15.77
2022-12-14T11:22:20.266Z,16.60
2022-12-14T11:24:28.559Z,17.52
2022-12-14T11:26:42.360Z,18.05
2022-12-14T11:28:50.394Z,18.63
2022-12-14T11:30:59.621Z,20.02
2022-12-14T11:33:01.259Z,18.33
2022-12-14T11:35:02.816Z,21.00
2022-12-14T11:37:22.931Z,14.57
2022-12-14T11:39:25.193Z,19.73
2022-12-14T11:41:37.958Z,17.13
2022-12-14T11:43:39.625Z,15.70
2022-12-14T11:45:41.099Z,17.45
2022-12-14T11:47:42.589Z,20.70
2022-12-14T11:49:48.908Z,18.30
2022-12-14T11:52:05.412Z,18.05
2022-12-14T11:54:07.831Z,17.30
2022-12-14T11:56:17.334Z,16.60
2022-12-14T11:58:22.900Z,18.95
2022-12-14T12:00:41.319Z,14.90
2022-12-14T12:02:57.887Z,18.92
2022-12-14T12:05:14.530Z,20.98
2022-12-14T12:07:26.107Z,22.83
2022-12-14T12:09:31.024Z,19.13
2022-12-14T12:11:34.948Z,21.52
2022-12-14T12:13:41.935Z,18.85
2022-12-14T12:15:52.265Z,17.98
2022-12-14T12:17:59.261Z,17.15
2022-12-14T12:20:00.794Z,19.83
2022-12-14T12:22:04.230Z,18.30
2022-12-14T12:24:27.068Z,21.92
2022-12-14T12:26:35.392Z,17.25
2022-12-14T12:28:43.135Z,19.20
2022-12-14T12:30:49.757Z,23.73
2022-12-14T12:32:53.593Z,19.63
2022-12-14T12:35:12.396Z,17.90
2022-12-14T12:37:26.424Z,17.00
2022-12-14T12:39:30.733Z,17.17
2022-12-14T12:41:47.477Z,20.05
2022-12-14T12:44:06.481Z,18.38
2022-12-14T12:46:28.267Z,20.38
2022-12-14T12:48:39.936Z,22.75
2022-12-14T12:50:51.266Z,23.58
2022-12-14T12:53:00.967Z,20.50
2022-12-14T12:55:17.650Z,19.40
2022-12-14T12:57:20.437Z,17.65
2022-12-14T12:59:31.095Z,19.83
2022-12-14T13:01:45.161Z,22.05
2022-12-14T13:04:00.467Z,17.73
2022-12-14T13:06:21.950Z,18.08
2022-12-14T13:08:30.617Z,20.23
2022-12-14T13:10:34.271Z,19.70
2022-12-14T13:12:44.225Z,22.15
2022-12-14T13:14:52.759Z,21.08
2022-12-14T13:16:55.579Z,31.17
2022-12-14T13:19:48.847Z,16.85
2022-12-14T13:21:49.660Z,17.15
2022-12-14T13:23:51.664Z,18.88
2022-12-14T13:26:18.993Z,23.70
2022-12-14T13:28:51.172Z,19.10
2022-12-14T13:31:03.549Z,18.00
2022-12-14T13:33:43.013Z,22.20
2022-12-14T13:35:53.224Z,21.33
2022-12-14T13:38:13.065Z,17.75
2022-12-14T13:40:31.489Z,17.05
2022-12-14T13:43:23.807Z,19.42
2022-12-14T13:45:39.784Z,17.95
2022-12-14T13:47:48.475Z,22.08
2022-12-14T13:52:41.920Z,20.67
2022-12-14T13:54:47.174Z,17.25
2022-12-14T13:56:49.157Z,21.80
2022-12-14T13:58:52.016Z,18.95
2022-12-14T14:01:11.855Z,19.92
2022-12-14T14:03:35.269Z,20.90
2022-12-14T14:05:43.329Z,21.08
2022-12-14T14:08:02.333Z,16.23
2022-12-14T14:10:34.200Z,22.77
2022-12-14T14:12:41.745Z,19.20
2022-12-14T14:14:55.890Z,18.70
2022-12-14T14:17:01.909Z,20.17
2022-12-14T14:19:09.299Z,18.85
2022-12-14T14:21:13.828Z,20.38
2022-12-14T14:23:18.210Z,21.10
2022-12-14T14:25:38.679Z,19.55
2022-12-14T14:27:50.230Z,22.30
2022-12-14T14:29:52.618Z,30.85
2022-12-14T14:31:57.959Z,21.25
2022-12-14T14:34:00.413Z,24.15
2022-12-14T14:38:55.972Z,26.38
2022-12-14T14:41:18.014Z,23.45
2022-12-14T14:43:27.579Z,19.13
2022-12-14T14:45:39.700Z,21.08
2022-12-14T14:47:42.308Z,22.83
2022-12-14T14:49:44.362Z,24.38
2022-12-14T14:51:45.809Z,31.83
2022-12-14T14:53:50.270Z,24.75
2022-12-14T14:56:30.178Z,23.40
2022-12-14T14:58:34.172Z,24.90
2022-12-14T15:00:50.598Z,21.48
2022-12-14T15:02:54.467Z,22.90
2022-12-14T15:05:05.468Z,22.65
2022-12-14T15:07:37.176Z,20.83
2022-12-14T15:09:46.570Z,21.55
2022-12-14T15:11:53.691Z,19.85
2022-12-14T15:14:33.152Z,26.33
2022-12-14T15:16:44.984Z,26.90
2022-12-14T15:18:46.483Z,28.67
2022-12-14T15:21:03.149Z,23.88
2022-12-14T15:23:06.133Z,22.73
2022-12-14T15:25:14.153Z,23.27
2022-12-14T15:27:34.775Z,22.65
2022-12-14T15:29:36.389Z,23.00
2022-12-14T15:31:42.489Z,27.98
2022-12-14T15:33:47.788Z,26.90
2022-12-14T15:35:49.638Z,27.00
2022-12-14T15:37:59.973Z,24.77
2022-12-14T15:40:07.818Z,19.77
2022-12-14T15:42:12.823Z,28.42
2022-12-14T15:44:22.009Z,32.00
2022-12-14T15:46:27.853Z,31.23
2022-12-14T15:48:32.870Z,52.00
2022-12-14T15:50:35.162Z,37.47
2022-12-14T15:52:36.663Z,42.72
2022-12-14T15:54:38.308Z,39.35
2022-12-14T15:56:41.959Z,87.88
2022-12-14T15:58:44.248Z,263.10
2022-12-14T16:00:49.392Z,171.88
2022-12-14T16:02:51.350Z,217.40
2022-12-14T16:04:55.083Z,162.85
2022-12-14T16:07:08.117Z,92.20
2022-12-14T16:09:26.069Z,79.47
2022-12-14T16:11:44.458Z,77.68
2022-12-14T16:13:46.988Z,74.13
2022-12-14T16:15:49.383Z,81.82
2022-12-14T16:18:00.709Z,70.00
2022-12-14T16:20:23.684Z,56.83
2022-12-14T16:22:30.316Z,73.05
2022-12-14T16:24:31.864Z,70.57
2022-12-14T16:26:37.545Z,65.15
2022-12-14T16:28:39.030Z,40.35
2022-12-14T16:31:02.676Z,45.00
2022-12-14T16:33:17.605Z,46.20
2022-12-14T16:35:28.031Z,44.20
2022-12-14T16:37:33.017Z,45.63
2022-12-14T16:39:44.220Z,54.22
2022-12-14T16:41:57.078Z,52.28
2022-12-14T16:44:01.817Z,52.70
2022-12-14T16:46:03.277Z,43.58
2022-12-14T16:48:18.228Z,60.90
2022-12-14T16:50:40.099Z,49.85
2022-12-14T16:52:43.518Z,46.45
2022-12-14T16:55:15.411Z,47.53
2022-12-14T16:57:20.949Z,47.08
2022-12-14T16:59:25.569Z,56.53
2022-12-14T17:01:27.732Z,55.53
2022-12-14T17:03:30.548Z,41.50
2022-12-14T17:05:35.588Z,43.47
2022-12-14T17:07:37.412Z,47.92
2022-12-14T17:09:39.992Z,54.38
2022-12-14T17:11:41.470Z,49.45
2022-12-14T17:13:42.892Z,43.20
2022-12-14T17:15:58.482Z,64.47
2022-12-14T17:18:03.830Z,65.47
2022-12-14T17:20:09.308Z,72.57
2022-12-14T17:22:18.264Z,60.47
2022-12-14T17:24:22.237Z,62.75
2022-12-14T17:26:25.574Z,59.03
2022-12-14T17:28:30.052Z,69.05
2022-12-14T17:30:31.740Z,61.00
2022-12-14T17:32:34.087Z,44.08
2022-12-14T17:34:35.553Z,53.50
2022-12-14T17:36:37.057Z,46.35
2022-12-14T17:38:38.538Z,50.20
2022-12-14T17:40:40.259Z,49.95
2022-12-14T17:42:45.905Z,48.60
2022-12-14T17:44:59.398Z,46.20
2022-12-14T17:47:00.837Z,58.65
2022-12-14T17:49:06.455Z,61.05
2022-12-14T17:51:16.455Z,57.25
2022-12-14T17:53:23.328Z,75.07
2022-12-14T17:55:27.318Z,62.83
2022-12-14T17:57:28.816Z,62.95
2022-12-14T17:59:30.438Z,64.60
2022-12-14T18:01:32.120Z,50.85
2022-12-14T18:03:36.792Z,56.60
2022-12-14T18:05:44.968Z,59.75
2022-12-14T18:07:50.330Z,48.78
2022-12-14T18:09:53.598Z,47.72
2022-12-14T18:12:22.010Z,47.25
2022-12-14T18:14:16.943Z,49.17
2022-12-14T18:16:20.360Z,50.92
2022-12-14T18:18:24.084Z,46.13
2022-12-14T18:20:26.192Z,44.95
2022-12-14T18:22:27.636Z,41.72
2022-12-14T18:24:29.090Z,39.17
2022-12-14T18:26:30.549Z,44.47
2022-12-14T18:28:32.210Z,50.20
2022-12-14T18:30:41.733Z,45.22
2022-12-14T18:32:44.620Z,49.30
2022-12-14T18:34:46.080Z,43.53
2022-12-14T18:36:47.614Z,39.88
2022-12-14T18:38:50.168Z,48.50
2022-12-14T18:40:53.300Z,48.92
2022-12-14T18:42:55.337Z,45.42
2022-12-14T18:44:56.771Z,46.10
2022-12-14T18:47:14.711Z,50.78
2022-12-14T18:49:19.642Z,42.35
2022-12-14T18:51:23.862Z,43.55
2022-12-14T18:53:26.414Z,47.33
2022-12-14T18:55:31.576Z,54.03
2022-12-14T18:57:33.076Z,46.45
2022-12-14T18:59:39.100Z,48.47
2022-12-14T19:01:43.754Z,54.70
2022-12-14T19:03:45.593Z,58.22
2022-12-14T19:05:47.647Z,61.00
2022-12-14T19:07:50.098Z,64.38
2022-12-14T19:09:51.628Z,58.53
2022-12-14T19:11:53.082Z,61.00
2022-12-14T19:13:55.206Z,61.45
2022-12-14T19:15:56.976Z,61.70
2022-12-14T19:17:59.092Z,50.97
2022-12-14T19:20:00.552Z,57.78
2022-12-14T19:22:02.006Z,55.13
2022-12-14T19:24:04.113Z,59.63
2022-12-14T19:26:05.877Z,109.97
2022-12-14T19:30:28.943Z,46.08
2022-12-14T19:32:30.450Z,46.97
2022-12-14T19:34:32.063Z,49.53
2022-12-14T19:36:33.560Z,42.65
2022-12-14T19:38:36.091Z,40.13
2022-12-14T19:40:37.612Z,46.80
2022-12-14T19:42:39.637Z,43.67
2022-12-14T19:44:41.084Z,47.92
2022-12-14T19:46:42.628Z,50.53
2022-12-14T19:48:44.671Z,46.35
2022-12-14T19:50:49.323Z,50.53
2022-12-14T19:52:52.483Z,46.13
2022-12-14T19:54:54.357Z,58.95
2022-12-14T19:56:56.019Z,55.72
2022-12-14T19:59:00.828Z,53.65
2022-12-14T20:01:07.499Z,49.00
2022-12-14T20:03:09.041Z,53.33
2022-12-14T20:05:10.770Z,59.25
2022-12-14T20:07:14.260Z,58.42
2022-12-14T20:09:17.275Z,63.17
2022-12-14T20:11:20.372Z,52.17
2022-12-14T20:13:23.288Z,49.20
2022-12-14T20:15:24.849Z,48.75
2022-12-14T20:17:26.587Z,41.00
2022-12-14T20:19:28.161Z,43.40
2022-12-14T20:21:30.065Z,42.10
2022-12-14T20:23:32.913Z,46.90
2022-12-14T20:25:34.934Z,48.92
2022-12-14T20:27:40.614Z,43.70
2022-12-14T20:29:42.803Z,42.92
2022-12-14T20:31:44.373Z,44.97
2022-12-14T20:33:45.975Z,43.00
2022-12-14T20:35:51.432Z,47.17
2022-12-14T20:37:53.744Z,42.83
2022-12-14T20:39:55.175Z,44.03
2022-12-14T20:41:56.856Z,46.35
2022-12-14T20:43:59.187Z,44.47
2022-12-14T20:46:00.677Z,45.50
2022-12-14T20:48:02.141Z,43.53
2022-12-14T20:50:04.034Z,43.80
2022-12-14T20:52:05.603Z,42.92
2022-12-14T20:54:10.711Z,44.70
2022-12-14T20:56:12.198Z,45.95
2022-12-14T20:58:13.638Z,44.78
2022-12-14T21:00:15.486Z,42.45
2022-12-14T21:02:18.672Z,42.15
2022-12-14T21:04:20.192Z,49.15
2022-12-14T21:06:23.382Z,48.45
2022-12-14T21:08:24.951Z,47.30
2022-12-14T21:10:26.512Z,37.45
2022-12-14T21:12:28.028Z,37.58
2022-12-14T21:14:32.811Z,44.30
2022-12-14T21:16:36.079Z,41.38
2022-12-14T21:18:37.603Z,38.58
2022-12-14T21:20:39.066Z,38.22
2022-12-14T21:22:40.538Z,37.92
2022-12-14T21:27:04.621Z,38.25
2022-12-14T21:29:07.905Z,38.47
2022-12-14T21:31:16.229Z,37.92
2022-12-14T21:33:17.780Z,28.60
2022-12-14T21:35:19.239Z,38.20
2022-12-14T21:37:20.911Z,29.13
2022-12-14T21:39:22.518Z,31.92
2022-12-14T21:41:42.466Z,30.35
2022-12-14T21:43:43.899Z,30.92
2022-12-14T21:45:46.189Z,32.10
2022-12-14T21:47:47.814Z,30.70
2022-12-14T21:49:49.395Z,34.13
2022-12-14T21:51:54.254Z,34.90
2022-12-14T21:53:59.262Z,30.45
2022-12-14T21:56:19.275Z,34.97
2022-12-14T21:58:20.886Z,29.50
2022-12-14T22:00:22.447Z,31.35
2022-12-14T22:02:25.655Z,28.60
2022-12-14T22:04:29.201Z,28.80
2022-12-14T22:06:32.634Z,27.50
2022-12-14T22:08:34.172Z,33.85
2022-12-14T22:10:35.629Z,35.47
2022-12-14T22:12:37.067Z,31.25
2022-12-14T22:14:38.943Z,29.80
2022-12-14T22:16:41.459Z,30.13
2022-12-14T22:18:42.928Z,26.80
2022-12-14T22:20:44.409Z,27.33
2022-12-14T22:22:45.911Z,32.08
2022-12-14T22:24:51.181Z,30.30
2022-12-14T22:26:52.889Z,23.83
2022-12-14T22:28:54.452Z,28.50
2022-12-14T22:30:55.967Z,27.60
2022-12-14T22:32:58.160Z,109.43
2022-12-14T22:34:59.767Z,82.78
2022-12-14T22:37:01.688Z,30.30
2022-12-14T22:39:03.286Z,27.88
2022-12-14T22:41:05.922Z,28.33
2022-12-14T22:43:07.357Z,26.58
2022-12-14T22:45:09.423Z,26.13
2022-12-14T22:47:10.947Z,29.55
2022-12-14T22:49:17.640Z,31.38
2022-12-14T22:51:20.252Z,26.88
2022-12-14T22:53:21.689Z,25.80
2022-12-14T22:55:24.296Z,24.02
2022-12-14T22:57:25.927Z,26.50
2022-12-14T22:59:58.175Z,23.83
2022-12-14T23:01:59.982Z,24.35
2022-12-14T23:04:02.165Z,24.23
2022-12-14T23:06:03.946Z,27.60
2022-12-14T23:08:05.821Z,24.10
2022-12-14T23:10:26.226Z,27.35
2022-12-14T23:12:46.112Z,21.15
2022-12-14T23:15:05.893Z,27.15
2022-12-14T23:17:26.324Z,25.15
2022-12-14T23:19:46.228Z,26.98
2022-12-14T23:22:06.534Z,26.00
2022-12-14T23:24:26.908Z,28.98
2022-12-14T23:26:47.353Z,26.75
2022-12-14T23:29:07.212Z,28.80
2022-12-14T23:31:27.208Z,29.67
2022-12-14T23:33:47.401Z,26.42
2022-12-14T23:36:07.608Z,28.33
2022-12-14T23:38:28.123Z,34.28
2022-12-14T23:40:48.011Z,32.47
2022-12-14T23:43:07.898Z,29.80
2022-12-14T23:45:28.264Z,26.70
2022-12-14T23:47:49.372Z,26.60
2022-12-14T23:50:09.791Z,26.95
2022-12-14T23:52:29.573Z,29.33
2022-12-14T23:54:49.978Z,30.73
2022-12-14T23:57:10.260Z,30.77
2022-12-14T23:59:32.556Z,29.02
